createdAt,value
2023-02-06T00:01:29.796Z,36.97
2023-02-06T00:03:57.945Z,35.47
2023-02-06T00:06:27.544Z,36.10
2023-02-06T00:08:55.649Z,33.90
2023-02-06T00:11:24.413Z,35.90
2023-02-06T00:13:52.589Z,35.03
2023-02-06T00:16:23.016Z,36.00
2023-02-06T00:18:51.837Z,35.73
2023-02-06T00:21:21.956Z,36.30
2023-02-06T00:23:52.512Z,34.00
2023-02-06T00:26:21.150Z,34.10
2023-02-06T00:28:50.205Z,36.07
2023-02-06T00:31:18.575Z,36.83
2023-02-06T00:33:47.427Z,34.93
2023-02-06T00:36:15.890Z,35.03
2023-02-06T00:38:44.023Z,35.37
2023-02-06T00:41:13.625Z,36.70
2023-02-06T00:43:43.439Z,35.57
2023-02-06T00:46:12.305Z,34.53
2023-02-06T00:48:40.485Z,35.00
2023-02-06T00:51:08.746Z,34.77
2023-02-06T00:53:36.869Z,35.60
2023-02-06T00:56:05.205Z,35.13
2023-02-06T00:58:34.734Z,34.87
2023-02-06T01:01:02.949Z,35.57
2023-02-06T01:03:31.092Z,37.83
2023-02-06T01:05:59.200Z,35.93
2023-02-06T01:08:27.418Z,36.63
2023-02-06T01:10:55.534Z,34.90
2023-02-06T01:13:23.679Z,35.00
2023-02-06T01:15:53.252Z,36.57
2023-02-06T01:18:21.380Z,34.73
2023-02-06T01:20:49.461Z,35.80
2023-02-06T01:23:17.601Z,35.93
2023-02-06T01:25:45.752Z,35.90
2023-02-06T01:28:13.901Z,34.93
2023-02-06T01:30:42.075Z,35.57
2023-02-06T01:33:11.612Z,40.20
2023-02-06T01:35:39.740Z,34.37
2023-02-06T01:38:07.853Z,35.50
2023-02-06T01:40:36.026Z,34.90
2023-02-06T01:43:04.151Z,33.73
2023-02-06T01:45:43.954Z,32.50
2023-02-06T01:48:18.526Z,32.77
2023-02-06T01:50:51.161Z,33.80
2023-02-06T01:53:20.794Z,32.53
2023-02-06T01:55:49.832Z,33.03
2023-02-06T01:58:23.531Z,32.87
2023-02-06T02:00:51.757Z,34.77
2023-02-06T02:03:21.411Z,38.10
2023-02-06T02:05:51.620Z,35.63
2023-02-06T02:08:22.065Z,37.13
2023-02-06T02:10:50.220Z,36.80
2023-02-06T02:13:18.489Z,37.03
2023-02-06T02:15:57.315Z,35.83
2023-02-06T02:18:47.553Z,32.60
2023-02-06T02:21:44.109Z,34.43
2023-02-06T02:24:19.502Z,39.60
2023-02-06T02:27:19.536Z,37.33
2023-02-06T02:30:25.583Z,35.33
2023-02-06T02:33:24.566Z,36.13
2023-02-06T02:35:56.434Z,41.80
2023-02-06T02:38:39.669Z,36.20
2023-02-06T02:41:16.838Z,33.93
2023-02-06T02:43:48.643Z,33.93
2023-02-06T02:46:24.754Z,27.67
2023-02-06T02:48:56.153Z,31.57
2023-02-06T02:51:26.170Z,33.57
2023-02-06T02:53:56.967Z,34.23
2023-02-06T02:56:26.830Z,32.47
2023-02-06T02:58:59.473Z,34.03
2023-02-06T03:01:32.054Z,36.97
2023-02-06T03:04:08.836Z,34.13
2023-02-06T03:06:51.565Z,35.60
2023-02-06T03:09:28.412Z,34.17
2023-02-06T03:12:05.164Z,35.90
2023-02-06T03:14:36.984Z,35.50
2023-02-06T03:17:10.830Z,38.40
2023-02-06T03:19:45.128Z,37.27
2023-02-06T03:22:16.460Z,34.83
2023-02-06T03:24:44.703Z,37.47
2023-02-06T03:27:16.078Z,37.53
2023-02-06T03:29:46.377Z,37.10
2023-02-06T03:32:18.389Z,37.83
2023-02-06T03:34:54.305Z,38.27
2023-02-06T03:37:24.999Z,43.07
2023-02-06T03:39:53.216Z,39.57
2023-02-06T03:42:23.373Z,37.57
2023-02-06T03:44:57.898Z,40.10
2023-02-06T03:47:27.653Z,38.53
2023-02-06T03:49:59.503Z,43.33
2023-02-06T03:52:33.509Z,37.30
2023-02-06T03:55:06.330Z,38.60
2023-02-06T03:57:36.748Z,37.07
2023-02-06T04:00:05.350Z,36.43
2023-02-06T04:02:33.832Z,39.90
2023-02-06T04:05:02.001Z,35.57
2023-02-06T04:07:34.319Z,37.93
2023-02-06T04:10:02.508Z,36.07
2023-02-06T04:12:31.374Z,35.60
2023-02-06T04:14:59.510Z,36.07
2023-02-06T04:17:43.261Z,37.37
2023-02-06T04:20:16.181Z,39.07
2023-02-06T04:22:46.006Z,39.40
2023-02-06T04:25:14.296Z,38.20
2023-02-06T04:27:42.464Z,37.37
2023-02-06T04:30:11.879Z,41.60
2023-02-06T04:32:40.032Z,38.77
2023-02-06T04:35:08.541Z,50.60
2023-02-06T04:37:37.680Z,111.97
2023-02-06T04:40:08.505Z,46.90
2023-02-06T04:42:36.665Z,46.20
2023-02-06T04:45:05.262Z,36.67
2023-02-06T04:47:33.387Z,37.83
2023-02-06T04:50:01.541Z,38.90
2023-02-06T04:52:29.726Z,49.20
2023-02-06T04:54:57.870Z,44.97
2023-02-06T04:57:27.915Z,41.03
2023-02-06T05:00:01.885Z,40.93
2023-02-06T05:02:37.430Z,39.70
2023-02-06T05:05:06.830Z,40.60
2023-02-06T05:07:36.822Z,38.70
2023-02-06T05:10:05.636Z,49.43
2023-02-06T05:12:35.158Z,41.60
2023-02-06T05:15:05.686Z,35.67
2023-02-06T05:17:33.828Z,32.50
2023-02-06T05:20:02.055Z,37.27
2023-02-06T05:22:33.238Z,34.77
2023-02-06T05:25:01.392Z,31.87
2023-02-06T05:27:32.421Z,35.13
2023-02-06T05:30:02.073Z,32.77
2023-02-06T05:32:32.177Z,33.23
2023-02-06T05:35:00.323Z,32.20
2023-02-06T05:37:28.512Z,34.70
2023-02-06T05:39:58.542Z,35.70
2023-02-06T05:42:32.420Z,33.67
2023-02-06T05:45:02.045Z,34.67
2023-02-06T05:47:30.374Z,36.27
2023-02-06T05:49:58.598Z,31.27
2023-02-06T05:52:26.857Z,35.03
2023-02-06T05:54:55.014Z,33.20
2023-02-06T05:57:23.530Z,33.23
2023-02-06T05:59:51.740Z,31.53
2023-02-06T06:02:21.346Z,29.50
2023-02-06T06:04:49.518Z,32.13
2023-02-06T06:07:17.831Z,30.80
2023-02-06T06:09:46.111Z,30.97
2023-02-06T06:12:14.353Z,31.40
2023-02-06T06:14:42.666Z,31.60
2023-02-06T06:17:10.835Z,32.33
2023-02-06T06:19:40.403Z,29.40
2023-02-06T06:22:17.131Z,34.20
2023-02-06T06:24:45.336Z,34.97
2023-02-06T06:27:13.473Z,27.00
2023-02-06T06:29:41.679Z,28.53
2023-02-06T06:32:09.943Z,35.27
2023-02-06T06:34:39.571Z,30.93
2023-02-06T06:37:07.757Z,32.47
2023-02-06T06:39:35.873Z,34.43
2023-02-06T06:42:04.473Z,34.00
2023-02-06T06:44:34.824Z,31.67
2023-02-06T06:47:02.913Z,33.73
2023-02-06T06:49:31.035Z,38.73
2023-02-06T06:52:00.769Z,35.93
2023-02-06T06:54:28.871Z,34.50
2023-02-06T06:56:57.017Z,35.47
2023-02-06T06:59:25.164Z,32.10
2023-02-06T07:01:53.317Z,26.87
2023-02-06T07:04:21.652Z,30.97
2023-02-06T07:06:49.812Z,29.33
2023-02-06T07:09:19.351Z,30.77
2023-02-06T07:11:47.482Z,31.90
2023-02-06T07:14:15.573Z,31.23
2023-02-06T07:16:43.881Z,30.47
2023-02-06T07:19:12.071Z,24.77
2023-02-06T07:21:40.219Z,31.50
2023-02-06T07:24:08.880Z,30.63
2023-02-06T07:26:38.367Z,30.63
2023-02-06T07:29:06.477Z,30.13
2023-02-06T07:31:34.725Z,30.60
2023-02-06T07:34:03.275Z,23.50
2023-02-06T07:36:31.405Z,30.10
2023-02-06T07:38:59.580Z,29.07
2023-02-06T07:41:27.774Z,29.37
2023-02-06T07:43:57.233Z,29.67
2023-02-06T07:46:25.525Z,29.03
2023-02-06T07:48:53.830Z,30.00
2023-02-06T07:51:22.989Z,31.23
2023-02-06T07:53:51.471Z,29.20
2023-02-06T07:56:23.229Z,29.33
2023-02-06T07:58:52.764Z,28.47
2023-02-06T08:01:23.589Z,26.57
2023-02-06T08:03:52.462Z,30.27
2023-02-06T08:06:24.277Z,28.70
2023-02-06T08:08:53.292Z,31.83
2023-02-06T08:11:25.180Z,29.70
2023-02-06T08:13:53.492Z,30.90
2023-02-06T08:16:24.706Z,31.00
2023-02-06T08:18:53.199Z,29.83
2023-02-06T08:21:22.950Z,31.50
2023-02-06T08:23:55.732Z,29.73
2023-02-06T08:26:24.196Z,29.33
2023-02-06T08:28:53.804Z,31.47
2023-02-06T08:31:25.803Z,29.57
2023-02-06T08:33:54.535Z,31.80
2023-02-06T08:36:23.986Z,30.17
2023-02-06T08:38:53.502Z,33.47
2023-02-06T08:41:24.639Z,32.40
2023-02-06T08:43:54.751Z,30.67
2023-02-06T08:46:26.877Z,33.67
2023-02-06T08:48:56.687Z,32.60
2023-02-06T08:51:28.104Z,34.90
2023-02-06T08:54:00.212Z,33.63
2023-02-06T08:56:29.107Z,37.70
2023-02-06T08:58:59.555Z,34.77
2023-02-06T09:01:30.826Z,35.80
2023-02-06T09:04:00.746Z,36.30
2023-02-06T09:06:29.853Z,35.63
2023-02-06T09:08:58.963Z,35.20
2023-02-06T09:11:28.121Z,34.97
2023-02-06T09:13:57.880Z,36.60
2023-02-06T09:16:29.159Z,40.43
2023-02-06T09:19:01.280Z,36.07
2023-02-06T09:21:31.185Z,35.40
2023-02-06T09:24:02.624Z,34.23
2023-02-06T09:26:33.231Z,32.43
2023-02-06T09:29:03.239Z,32.10
2023-02-06T09:31:32.971Z,32.60
2023-02-06T09:34:01.364Z,33.23
2023-02-06T09:36:30.907Z,32.27
2023-02-06T09:38:59.462Z,32.10
2023-02-06T09:41:32.606Z,30.53
2023-02-06T09:44:06.186Z,32.97
2023-02-06T09:46:38.364Z,31.33
2023-02-06T09:49:12.226Z,31.47
2023-02-06T09:51:53.397Z,33.10
2023-02-06T09:54:26.290Z,32.30
2023-02-06T09:56:58.861Z,32.67
2023-02-06T09:59:33.608Z,33.40
2023-02-06T10:02:19.546Z,32.63
2023-02-06T10:04:55.937Z,32.90
2023-02-06T10:07:39.507Z,33.43
2023-02-06T10:10:16.352Z,35.30
2023-02-06T10:12:47.736Z,34.87
2023-02-06T10:15:26.796Z,33.43
2023-02-06T10:18:01.525Z,33.57
2023-02-06T10:20:34.476Z,36.03
2023-02-06T10:23:12.829Z,34.30
2023-02-06T10:25:44.797Z,34.50
2023-02-06T10:28:23.341Z,36.97
2023-02-06T10:31:08.425Z,34.77
2023-02-06T10:33:46.656Z,33.27
2023-02-06T10:36:30.520Z,32.33
2023-02-06T10:39:20.481Z,32.83
2023-02-06T10:41:57.067Z,39.40
2023-02-06T10:44:30.895Z,40.33
2023-02-06T10:47:00.357Z,36.73
2023-02-06T10:49:35.456Z,37.37
2023-02-06T10:52:13.264Z,33.27
2023-02-06T10:54:46.535Z,37.23
2023-02-06T10:57:18.528Z,40.97
2023-02-06T10:59:53.555Z,37.10
2023-02-06T11:02:25.543Z,36.30
2023-02-06T11:05:00.731Z,35.90
2023-02-06T11:07:33.681Z,36.00
2023-02-06T11:10:01.994Z,36.50
2023-02-06T11:12:34.605Z,38.13
2023-02-06T11:15:07.714Z,37.77
2023-02-06T11:17:35.956Z,36.10
2023-02-06T11:20:24.476Z,38.07
2023-02-06T11:22:53.740Z,34.37
2023-02-06T11:25:30.073Z,34.00
2023-02-06T11:28:01.758Z,33.80
2023-02-06T11:30:35.676Z,31.13
2023-02-06T11:33:07.294Z,33.20
2023-02-06T11:35:43.127Z,36.47
2023-02-06T11:38:20.219Z,32.97
2023-02-06T11:40:56.370Z,33.50
2023-02-06T11:43:26.158Z,35.03
2023-02-06T11:46:09.135Z,34.37
2023-02-06T11:48:40.101Z,34.50
2023-02-06T11:51:10.873Z,38.88
2023-02-06T11:53:39.740Z,36.07
2023-02-06T11:56:18.435Z,35.67
2023-02-06T11:58:47.077Z,35.10
2023-02-06T12:01:20.884Z,35.23
2023-02-06T12:03:58.473Z,33.47
2023-02-06T12:06:33.919Z,35.43
2023-02-06T12:09:04.065Z,34.40
2023-02-06T12:11:38.223Z,37.40
2023-02-06T12:14:11.840Z,45.73
2023-02-06T12:16:42.873Z,42.42
2023-02-06T12:19:17.946Z,39.63
2023-02-06T12:21:50.741Z,40.95
2023-02-06T12:24:35.015Z,35.17
2023-02-06T12:27:12.885Z,34.03
2023-02-06T12:29:44.912Z,35.40
2023-02-06T12:32:18.656Z,41.30
2023-02-06T12:34:54.452Z,35.93
2023-02-06T12:37:31.958Z,35.90
2023-02-06T12:40:01.077Z,33.53
2023-02-06T12:42:39.870Z,32.23
2023-02-06T12:45:24.454Z,34.97
2023-02-06T12:47:55.403Z,34.73
2023-02-06T12:50:25.978Z,35.90
2023-02-06T12:53:02.353Z,32.43
2023-02-06T12:55:34.092Z,34.23
2023-02-06T12:58:03.279Z,34.70
2023-02-06T13:00:50.769Z,32.60
2023-02-06T13:03:31.115Z,34.27
2023-02-06T13:06:12.314Z,35.00
2023-02-06T13:08:46.451Z,34.40
2023-02-06T13:11:28.769Z,37.00
2023-02-06T13:14:19.469Z,36.53
2023-02-06T13:16:53.302Z,36.60
2023-02-06T13:19:51.150Z,35.97
2023-02-06T13:22:44.889Z,35.43
2023-02-06T13:25:53.460Z,33.03
2023-02-06T13:28:58.810Z,33.63
2023-02-06T13:31:34.407Z,34.33
2023-02-06T13:34:09.156Z,34.27
2023-02-06T13:36:49.988Z,33.17
2023-02-06T13:39:31.271Z,33.93
2023-02-06T13:42:16.100Z,36.13
2023-02-06T13:44:44.295Z,35.70
2023-02-06T13:47:50.634Z,34.97
2023-02-06T13:50:50.368Z,35.10
2023-02-06T13:53:33.828Z,33.47
2023-02-06T13:56:19.812Z,31.43
2023-02-06T13:58:50.651Z,31.30
2023-02-06T14:01:22.988Z,34.57
2023-02-06T14:03:54.075Z,30.80
2023-02-06T14:06:39.554Z,29.93
2023-02-06T14:09:30.669Z,30.43
2023-02-06T14:12:25.168Z,35.80
2023-02-06T14:15:17.350Z,29.80
2023-02-06T14:18:07.507Z,28.33
2023-02-06T14:20:48.494Z,29.00
2023-02-06T14:23:30.087Z,30.50
2023-02-06T14:26:14.074Z,31.37
2023-02-06T14:28:53.002Z,30.77
2023-02-06T14:31:39.064Z,29.27
2023-02-06T14:34:18.813Z,34.17
2023-02-06T14:37:00.606Z,32.60
2023-02-06T14:39:40.505Z,29.93
2023-02-06T14:42:17.483Z,31.20
2023-02-06T14:44:50.571Z,32.37
2023-02-06T14:47:21.719Z,33.10
2023-02-06T14:49:50.664Z,31.40
2023-02-06T14:52:23.146Z,32.93
2023-02-06T14:54:51.372Z,31.93
2023-02-06T14:57:24.117Z,29.90
2023-02-06T14:59:57.392Z,28.90
2023-02-06T15:02:29.371Z,29.30
2023-02-06T15:04:58.172Z,30.10
2023-02-06T15:07:32.761Z,31.07
2023-02-06T15:10:05.714Z,33.07
2023-02-06T15:12:35.065Z,31.80
2023-02-06T15:15:15.334Z,30.43
2023-02-06T15:17:43.863Z,31.77
2023-02-06T15:20:30.386Z,31.93
2023-02-06T15:23:17.043Z,31.93
2023-02-06T15:26:01.796Z,31.73
2023-02-06T15:28:32.425Z,32.83
2023-02-06T15:31:02.325Z,29.70
2023-02-06T15:33:33.158Z,31.03
2023-02-06T15:36:04.395Z,30.07
2023-02-06T15:38:35.084Z,30.63
2023-02-06T15:41:05.686Z,28.53
2023-02-06T15:43:35.487Z,30.67
2023-02-06T15:46:06.186Z,32.40
2023-02-06T15:48:38.085Z,25.73
2023-02-06T15:51:20.909Z,27.40
2023-02-06T15:53:52.650Z,27.83
2023-02-06T15:56:25.980Z,24.17
2023-02-06T15:59:01.009Z,24.63
2023-02-06T16:01:32.269Z,25.03
2023-02-06T16:04:07.569Z,26.03
2023-02-06T16:06:35.951Z,32.08
2023-02-06T16:09:08.501Z,28.23
2023-02-06T16:11:51.157Z,25.97
2023-02-06T16:14:29.872Z,25.80
2023-02-06T16:17:01.099Z,24.90
2023-02-06T16:19:38.867Z,25.57
2023-02-06T16:22:15.265Z,24.33
2023-02-06T16:24:44.892Z,26.30
2023-02-06T16:27:21.573Z,25.67
2023-02-06T16:29:53.664Z,31.95
2023-02-06T16:32:26.017Z,26.33
2023-02-06T16:34:54.474Z,26.27
2023-02-06T16:37:24.298Z,24.27
2023-02-06T16:39:54.658Z,30.83
2023-02-06T16:42:24.740Z,26.50
2023-02-06T16:44:54.980Z,27.23
2023-02-06T16:47:24.300Z,26.60
2023-02-06T16:49:52.732Z,26.97
2023-02-06T16:52:25.483Z,29.37
2023-02-06T16:54:57.740Z,28.60
2023-02-06T16:57:30.988Z,28.87
2023-02-06T16:59:59.745Z,27.93
2023-02-06T17:02:28.981Z,29.80
2023-02-06T17:04:57.223Z,39.17
2023-02-06T17:07:27.657Z,30.67
2023-02-06T17:09:59.536Z,30.57
2023-02-06T17:12:27.720Z,32.73
2023-02-06T17:14:56.188Z,31.10
2023-02-06T17:17:24.621Z,33.07
2023-02-06T17:19:53.638Z,31.50
2023-02-06T17:22:22.301Z,33.53
2023-02-06T17:24:50.637Z,30.93
2023-02-06T17:27:22.964Z,32.37
2023-02-06T17:29:51.546Z,35.07
2023-02-06T17:32:22.269Z,33.47
2023-02-06T17:34:54.462Z,35.07
2023-02-06T17:37:22.859Z,32.77
2023-02-06T17:39:52.438Z,34.87
2023-02-06T17:42:24.384Z,34.43
2023-02-06T17:44:52.525Z,33.77
2023-02-06T17:47:20.674Z,32.07
2023-02-06T17:49:48.817Z,34.07
2023-02-06T17:52:17.047Z,35.97
2023-02-06T17:54:45.851Z,36.43
2023-02-06T17:57:14.425Z,35.50
2023-02-06T17:59:44.113Z,34.90
2023-02-06T18:02:14.773Z,30.50
2023-02-06T18:04:43.125Z,34.60
2023-02-06T18:07:11.496Z,33.23
2023-02-06T18:09:41.939Z,32.90
2023-02-06T18:12:10.381Z,29.93
2023-02-06T18:14:39.619Z,30.43
2023-02-06T18:17:09.950Z,33.10
2023-02-06T18:19:42.310Z,34.07
2023-02-06T18:22:13.403Z,30.07
2023-02-06T18:24:41.881Z,31.83
2023-02-06T18:27:10.602Z,33.73
2023-02-06T18:29:49.314Z,31.43
2023-02-06T18:32:19.867Z,31.60
2023-02-06T18:34:48.362Z,34.73
2023-02-06T18:37:16.866Z,34.50
2023-02-06T18:39:44.960Z,33.23
2023-02-06T18:42:31.037Z,29.17
2023-02-06T18:44:59.424Z,34.40
2023-02-06T18:47:29.228Z,30.60
2023-02-06T18:49:57.423Z,29.80
2023-02-06T18:52:25.542Z,32.00
2023-02-06T18:54:53.717Z,31.67
2023-02-06T18:57:22.044Z,31.73
2023-02-06T18:59:50.407Z,28.17
2023-02-06T19:02:18.629Z,31.83
2023-02-06T19:04:48.453Z,28.80
2023-02-06T19:07:16.672Z,31.43
2023-02-06T19:09:45.333Z,32.40
2023-02-06T19:12:13.686Z,33.33
2023-02-06T19:14:41.871Z,30.90
2023-02-06T19:17:10.008Z,33.50
2023-02-06T19:19:38.268Z,35.03
2023-02-06T19:22:07.845Z,33.43
2023-02-06T19:24:35.982Z,34.97
2023-02-06T19:27:04.185Z,32.60
2023-02-06T19:29:36.082Z,28.67
2023-02-06T19:32:05.566Z,24.30
2023-02-06T19:34:36.148Z,28.77
2023-02-06T19:37:04.760Z,27.90
2023-02-06T19:39:35.902Z,24.50
2023-02-06T19:42:06.584Z,23.33
2023-02-06T19:44:35.311Z,26.40
2023-02-06T19:47:03.595Z,25.93
2023-02-06T19:49:32.650Z,23.33
2023-02-06T19:52:01.623Z,25.83
2023-02-06T19:54:30.013Z,23.83
2023-02-06T19:57:00.759Z,25.93
2023-02-06T19:59:31.040Z,26.87
2023-02-06T20:02:01.397Z,25.37
2023-02-06T20:04:33.585Z,26.70
2023-02-06T20:07:02.594Z,25.43
2023-02-06T20:09:31.766Z,27.93
2023-02-06T20:12:01.642Z,30.17
2023-02-06T20:14:30.310Z,27.17
2023-02-06T20:16:58.746Z,26.97
2023-02-06T20:19:29.356Z,27.07
2023-02-06T20:22:00.582Z,28.07
2023-02-06T20:24:31.464Z,27.10
2023-02-06T20:27:03.154Z,25.53
2023-02-06T20:29:35.389Z,23.50
2023-02-06T20:32:05.281Z,24.03
2023-02-06T20:34:34.020Z,26.80
2023-02-06T20:37:02.264Z,25.43
2023-02-06T20:39:31.086Z,23.13
2023-02-06T20:42:00.969Z,25.93
2023-02-06T20:44:31.020Z,26.83
2023-02-06T20:46:59.379Z,25.23
2023-02-06T20:49:31.279Z,26.23
2023-02-06T20:51:59.842Z,25.37
2023-02-06T20:54:28.242Z,26.53
2023-02-06T20:56:56.512Z,26.10
2023-02-06T20:59:26.102Z,24.77
2023-02-06T21:01:54.419Z,23.90
2023-02-06T21:04:22.910Z,27.70
2023-02-06T21:06:51.321Z,27.53
2023-02-06T21:09:20.203Z,27.87
2023-02-06T21:11:50.205Z,27.73
2023-02-06T21:14:19.301Z,27.53
2023-02-06T21:16:49.613Z,25.77
2023-02-06T21:19:20.218Z,26.83
2023-02-06T21:21:49.143Z,28.93
2023-02-06T21:24:18.950Z,29.87
2023-02-06T21:26:47.200Z,28.23
2023-02-06T21:29:16.589Z,28.20
2023-02-06T21:31:46.300Z,29.60
2023-02-06T21:34:19.149Z,29.43
2023-02-06T21:36:48.159Z,26.93
2023-02-06T21:39:19.557Z,31.13
2023-02-06T21:41:51.589Z,28.60
2023-02-06T21:44:19.805Z,27.87
2023-02-06T21:46:48.012Z,28.83
2023-02-06T21:49:17.548Z,29.50
2023-02-06T21:51:45.747Z,34.23
2023-02-06T21:54:13.886Z,38.57
2023-02-06T21:56:42.036Z,34.90
2023-02-06T21:59:12.948Z,35.30
2023-02-06T22:01:41.404Z,36.77
2023-02-06T22:04:11.241Z,35.90
2023-02-06T22:06:41.161Z,37.70
2023-02-06T22:09:12.648Z,37.43
2023-02-06T22:11:41.682Z,35.30
2023-02-06T22:14:12.942Z,36.47
2023-02-06T22:16:41.990Z,37.73
2023-02-06T22:19:11.111Z,37.73
2023-02-06T22:21:40.775Z,37.47
2023-02-06T22:24:10.295Z,36.43
2023-02-06T22:26:39.601Z,35.43
2023-02-06T22:29:08.917Z,40.30
2023-02-06T22:31:38.300Z,41.63
2023-02-06T22:34:06.504Z,46.60
2023-02-06T22:36:34.794Z,41.37
2023-02-06T22:39:07.517Z,44.67
2023-02-06T22:41:36.688Z,41.13
2023-02-06T22:44:04.976Z,45.40
2023-02-06T22:46:35.227Z,45.00
2023-02-06T22:49:03.774Z,44.73
2023-02-06T22:51:31.951Z,41.70
2023-02-06T22:54:00.575Z,39.57
2023-02-06T22:56:34.941Z,43.07
2023-02-06T22:59:06.120Z,43.70
2023-02-06T23:01:36.609Z,42.53
2023-02-06T23:04:06.650Z,39.53
2023-02-06T23:06:36.320Z,39.87
2023-02-06T23:09:06.353Z,41.97
2023-02-06T23:11:36.509Z,39.27
2023-02-06T23:14:06.886Z,42.37
2023-02-06T23:16:36.578Z,40.10
2023-02-06T23:19:06.504Z,43.33
2023-02-06T23:21:38.570Z,41.43
2023-02-06T23:24:08.887Z,39.83
2023-02-06T23:26:38.776Z,40.27
2023-02-06T23:29:09.339Z,39.60
2023-02-06T23:31:38.020Z,44.00
2023-02-06T23:34:06.299Z,44.73
2023-02-06T23:36:34.770Z,43.33
2023-02-06T23:39:03.185Z,40.83
2023-02-06T23:41:32.094Z,43.90
2023-02-06T23:44:03.728Z,40.53
2023-02-06T23:46:34.513Z,44.53
2023-02-06T23:49:02.689Z,41.37
2023-02-06T23:51:31.727Z,44.23
2023-02-06T23:54:00.192Z,42.07
2023-02-06T23:56:30.644Z,43.07
2023-02-06T23:59:00.300Z,43.13
